createdAt,value
2022-07-29T00:00:12.115Z,100.00
2022-07-29T00:04:00.316Z,100.00
2022-07-29T00:07:11.204Z,100.00
2022-07-29T00:10:44.755Z,100.00
2022-07-29T00:13:14.969Z,100.00
2022-07-29T00:15:56.760Z,100.00
2022-07-29T00:19:12.452Z,100.00
2022-07-29T00:22:04.620Z,100.00
2022-07-29T00:25:14.786Z,100.00
2022-07-29T00:27:47.312Z,100.00
2022-07-29T00:30:44.923Z,100.00
2022-07-29T00:33:43.471Z,100.00
2022-07-29T00:36:26.180Z,100.00
2022-07-29T00:39:38.567Z,100.00
2022-07-29T00:42:36.771Z,100.00
2022-07-29T00:45:22.238Z,100.00
2022-07-29T00:48:15.007Z,100.00
2022-07-29T00:51:03.110Z,100.00
2022-07-29T00:53:36.232Z,100.00
2022-07-29T00:56:12.908Z,100.00
2022-07-29T00:59:07.761Z,100.00
2022-07-29T01:01:39.927Z,100.00
2022-07-29T01:04:42.096Z,100.00
2022-07-29T01:07:57.676Z,100.00
2022-07-29T01:10:53.790Z,100.00
2022-07-29T01:13:33.983Z,100.00
2022-07-29T01:16:34.957Z,100.00
2022-07-29T01:19:58.881Z,100.00
2022-07-29T01:23:41.766Z,100.00
2022-07-29T01:26:45.608Z,100.00
2022-07-29T01:29:38.773Z,100.00
2022-07-29T01:32:42.690Z,100.00
2022-07-29T01:35:45.009Z,100.00
2022-07-29T01:38:27.035Z,100.00
2022-07-29T01:41:37.033Z,100.00
2022-07-29T01:44:35.276Z,100.00
2022-07-29T01:48:00.179Z,100.00
2022-07-29T01:51:02.567Z,100.00
2022-07-29T01:54:16.254Z,100.00
2022-07-29T01:57:25.479Z,100.00
2022-07-29T02:00:34.134Z,100.00
2022-07-29T02:03:50.960Z,100.00
2022-07-29T02:06:33.170Z,100.00
2022-07-29T02:09:39.770Z,100.00
2022-07-29T02:12:42.752Z,100.00
2022-07-29T02:15:47.353Z,100.00
2022-07-29T02:18:23.128Z,100.00
2022-07-29T02:21:15.033Z,100.00
2022-07-29T02:24:23.615Z,100.00
2022-07-29T02:27:05.742Z,100.00
2022-07-29T02:29:57.631Z,100.00
2022-07-29T02:32:30.658Z,100.00
2022-07-29T02:35:21.278Z,100.00
2022-07-29T02:38:31.949Z,100.00
2022-07-29T02:41:11.612Z,100.00
2022-07-29T02:43:56.606Z,100.00
2022-07-29T02:46:50.415Z,100.00
2022-07-29T02:49:41.687Z,100.00
2022-07-29T02:52:46.683Z,100.00
2022-07-29T02:56:27.436Z,100.00
2022-07-29T02:59:11.155Z,100.00
2022-07-29T03:01:46.487Z,100.00
2022-07-29T03:04:19.734Z,100.00
2022-07-29T03:06:58.174Z,100.00
2022-07-29T03:10:18.842Z,100.00
2022-07-29T03:13:01.859Z,100.00
2022-07-29T03:15:49.822Z,100.00
2022-07-29T03:18:19.726Z,100.00
2022-07-29T03:21:30.031Z,100.00
2022-07-29T03:24:34.913Z,100.00
2022-07-29T03:27:07.623Z,100.00
2022-07-29T03:30:09.076Z,100.00
2022-07-29T03:33:04.603Z,100.00
2022-07-29T03:36:25.360Z,100.00
2022-07-29T03:39:22.195Z,100.00
2022-07-29T03:42:36.419Z,100.00
2022-07-29T03:45:25.244Z,100.00
2022-07-29T03:48:36.212Z,100.00
2022-07-29T03:51:33.827Z,100.00
2022-07-29T03:55:02.233Z,100.00
2022-07-29T03:58:40.370Z,100.00
2022-07-29T04:01:27.746Z,100.00
2022-07-29T04:05:04.537Z,100.00
2022-07-29T04:07:54.566Z,100.00
2022-07-29T04:11:05.536Z,100.00
2022-07-29T04:14:33.095Z,100.00
2022-07-29T04:17:39.900Z,100.00
2022-07-29T04:21:01.202Z,100.00
2022-07-29T04:24:13.519Z,100.00
2022-07-29T04:27:03.426Z,100.00
2022-07-29T04:29:57.579Z,100.00
2022-07-29T04:33:15.493Z,100.00
2022-07-29T04:35:49.954Z,100.00
2022-07-29T04:38:37.965Z,100.00
2022-07-29T04:41:33.106Z,100.00
2022-07-29T04:44:39.828Z,100.00
2022-07-29T04:47:10.564Z,100.00
2022-07-29T04:49:40.762Z,100.00
2022-07-29T04:52:07.945Z,100.00
2022-07-29T04:54:38.244Z,100.00
2022-07-29T04:57:11.449Z,100.00
2022-07-29T04:59:39.058Z,100.00
2022-07-29T05:02:09.390Z,100.00
2022-07-29T05:05:11.820Z,100.00
2022-07-29T05:07:45.050Z,100.00
2022-07-29T05:10:14.799Z,100.00
2022-07-29T05:12:52.609Z,100.00
2022-07-29T05:15:20.434Z,100.00
2022-07-29T05:17:47.864Z,100.00
2022-07-29T05:20:45.582Z,100.00
2022-07-29T05:23:16.121Z,100.00
2022-07-29T05:26:26.389Z,100.00
2022-07-29T05:28:59.849Z,100.00
2022-07-29T05:31:47.523Z,100.00
2022-07-29T05:34:35.214Z,100.00
2022-07-29T05:37:05.086Z,100.00
2022-07-29T05:39:47.443Z,100.00
2022-07-29T05:42:20.263Z,100.00
2022-07-29T05:44:47.971Z,100.00
2022-07-29T05:47:26.453Z,100.00
2022-07-29T05:49:58.652Z,100.00
2022-07-29T05:52:29.159Z,100.00
2022-07-29T05:55:01.619Z,100.00
2022-07-29T05:57:28.944Z,100.00
2022-07-29T06:00:00.279Z,100.00
2022-07-29T06:02:50.166Z,100.00
2022-07-29T06:05:20.186Z,100.00
2022-07-29T06:07:54.053Z,100.00
2022-07-29T06:10:29.221Z,100.00
2022-07-29T06:13:10.831Z,100.00
2022-07-29T06:15:40.868Z,100.00
2022-07-29T06:18:11.211Z,100.00
2022-07-29T06:20:50.140Z,100.00
2022-07-29T06:23:21.920Z,100.00
2022-07-29T06:25:51.605Z,100.00
2022-07-29T06:28:29.426Z,100.00
2022-07-29T06:31:08.341Z,100.00
2022-07-29T06:34:03.558Z,100.00
2022-07-29T06:36:41.550Z,100.00
2022-07-29T06:39:14.886Z,100.00
2022-07-29T06:42:13.958Z,100.00
2022-07-29T06:45:01.716Z,100.00
2022-07-29T06:47:30.983Z,100.00
2022-07-29T06:50:04.329Z,100.00
2022-07-29T06:52:44.628Z,100.00
2022-07-29T06:55:25.983Z,100.00
2022-07-29T06:57:53.095Z,100.00
2022-07-29T07:00:43.383Z,100.00
2022-07-29T07:03:11.054Z,100.00
2022-07-29T07:05:45.478Z,100.00
2022-07-29T07:08:14.103Z,100.00
2022-07-29T07:10:43.777Z,100.00
2022-07-29T07:13:14.914Z,100.00
2022-07-29T07:15:56.071Z,100.00
2022-07-29T07:18:37.855Z,100.00
2022-07-29T07:21:06.120Z,100.00
2022-07-29T07:24:14.267Z,100.00
2022-07-29T07:27:02.498Z,100.00
2022-07-29T07:29:50.934Z,100.00
2022-07-29T07:32:23.898Z,100.00
2022-07-29T07:35:16.462Z,100.00
2022-07-29T07:38:02.365Z,100.00
2022-07-29T07:40:33.116Z,100.00
2022-07-29T07:43:33.709Z,100.00
2022-07-29T07:46:26.910Z,99.34
2022-07-29T07:49:09.833Z,99.64
2022-07-29T07:51:40.548Z,96.65
2022-07-29T07:54:28.725Z,96.27
2022-07-29T07:57:16.509Z,96.03
2022-07-29T08:00:28.858Z,92.07
2022-07-29T08:03:05.733Z,89.67
2022-07-29T08:06:05.440Z,86.69
2022-07-29T08:08:56.227Z,88.12
2022-07-29T08:12:08.130Z,88.23
2022-07-29T08:14:55.545Z,84.49
2022-07-29T08:17:22.728Z,87.09
2022-07-29T08:19:58.519Z,84.71
2022-07-29T08:22:42.276Z,83.35
2022-07-29T08:25:21.031Z,83.72
2022-07-29T08:27:58.332Z,81.48
2022-07-29T08:30:29.137Z,82.21
2022-07-29T08:33:27.192Z,79.91
2022-07-29T08:35:55.303Z,80.41
2022-07-29T08:38:30.565Z,79.74
2022-07-29T08:41:01.596Z,76.00
2022-07-29T08:43:32.413Z,77.76
2022-07-29T08:46:04.721Z,75.10
2022-07-29T08:48:41.833Z,76.69
2022-07-29T08:51:35.354Z,76.98
2022-07-29T08:54:38.166Z,71.74
2022-07-29T08:57:08.890Z,70.63
2022-07-29T08:59:43.392Z,68.08
2022-07-29T09:02:22.602Z,69.43
2022-07-29T09:04:50.503Z,69.60
2022-07-29T09:07:20.311Z,68.37
2022-07-29T09:10:01.861Z,70.06
2022-07-29T09:12:33.694Z,67.15
2022-07-29T09:15:04.040Z,65.28
2022-07-29T09:17:48.476Z,64.91
2022-07-29T09:20:32.886Z,66.20
2022-07-29T09:23:08.644Z,64.70
2022-07-29T09:25:38.945Z,63.01
2022-07-29T09:28:14.831Z,61.87
2022-07-29T09:31:05.970Z,60.26
2022-07-29T09:33:42.542Z,59.99
2022-07-29T09:36:11.925Z,60.72
2022-07-29T09:38:42.702Z,58.74
2022-07-29T09:41:11.144Z,58.71
2022-07-29T09:43:43.905Z,58.42
2022-07-29T09:46:15.251Z,59.01
2022-07-29T09:48:42.588Z,59.36
2022-07-29T09:51:29.908Z,58.27
2022-07-29T09:54:26.855Z,58.02
2022-07-29T09:57:21.980Z,57.14
2022-07-29T10:00:00.195Z,54.76
2022-07-29T10:02:33.106Z,53.22
2022-07-29T10:05:20.904Z,52.72
2022-07-29T10:07:54.133Z,54.26
2022-07-29T10:10:34.912Z,54.74
2022-07-29T10:13:24.757Z,53.56
2022-07-29T10:16:14.193Z,51.55
2022-07-29T10:18:47.837Z,51.96
2022-07-29T10:21:35.869Z,49.84
2022-07-29T10:24:05.712Z,47.66
2022-07-29T10:26:40.234Z,47.85
2022-07-29T10:29:13.515Z,49.37
2022-07-29T10:32:19.649Z,46.93
2022-07-29T10:35:22.847Z,45.83
2022-07-29T10:38:19.426Z,45.23
2022-07-29T10:41:32.348Z,44.30
2022-07-29T10:44:40.436Z,43.42
2022-07-29T10:47:22.283Z,44.32
2022-07-29T10:50:01.093Z,44.30
2022-07-29T10:52:54.081Z,44.96
2022-07-29T10:55:43.334Z,45.46
2022-07-29T11:01:37.690Z,45.45
2022-07-29T11:04:09.165Z,45.51
2022-07-29T11:07:03.997Z,45.84
2022-07-29T11:10:09.868Z,46.02
2022-07-29T11:13:20.963Z,47.03
2022-07-29T11:16:36.891Z,48.25
2022-07-29T11:19:54.241Z,45.57
2022-07-29T11:22:36.639Z,45.87
2022-07-29T11:25:50.354Z,45.87
2022-07-29T11:28:34.730Z,46.54
2022-07-29T11:31:15.410Z,47.10
2022-07-29T11:34:32.606Z,47.08
2022-07-29T11:37:14.245Z,48.42
2022-07-29T11:40:19.888Z,47.68
2022-07-29T11:43:07.391Z,49.10
2022-07-29T11:45:47.667Z,49.49
2022-07-29T11:48:49.009Z,49.53
2022-07-29T11:51:48.624Z,48.75
2022-07-29T11:54:57.319Z,49.77
2022-07-29T11:58:09.810Z,51.21
2022-07-29T12:01:08.005Z,52.23
2022-07-29T12:03:58.409Z,52.41
2022-07-29T12:06:32.156Z,52.23
2022-07-29T12:09:40.383Z,52.62
2022-07-29T12:12:30.489Z,52.90
2022-07-29T12:15:47.431Z,53.26
2022-07-29T12:18:39.557Z,53.76
2022-07-29T12:21:53.869Z,52.51
2022-07-29T12:25:32.029Z,51.19
2022-07-29T12:28:16.329Z,49.84
2022-07-29T12:31:43.427Z,52.18
2022-07-29T12:35:08.159Z,56.05
2022-07-29T12:38:05.807Z,58.65
2022-07-29T12:40:38.294Z,58.26
2022-07-29T12:43:18.329Z,57.72
2022-07-29T12:46:16.969Z,58.54
2022-07-29T12:49:00.225Z,60.19
2022-07-29T12:51:37.373Z,60.43
2022-07-29T12:54:08.970Z,61.03
2022-07-29T12:56:59.832Z,66.17
2022-07-29T13:00:11.117Z,71.74
2022-07-29T13:03:08.466Z,76.12
2022-07-29T13:05:55.321Z,78.88
2022-07-29T13:08:25.887Z,81.59
2022-07-29T13:11:06.704Z,85.51
2022-07-29T13:14:05.833Z,86.90
2022-07-29T13:17:08.328Z,87.19
2022-07-29T13:19:44.419Z,89.55
2022-07-29T13:22:22.826Z,94.48
2022-07-29T13:25:07.123Z,95.49
2022-07-29T13:27:51.059Z,93.11
2022-07-29T13:30:36.287Z,97.01
2022-07-29T13:33:14.855Z,99.70
2022-07-29T13:35:44.419Z,100.00
2022-07-29T13:38:12.143Z,99.24
2022-07-29T13:40:39.469Z,99.19
2022-07-29T13:43:10.393Z,99.75
2022-07-29T13:45:40.234Z,99.60
2022-07-29T13:48:07.687Z,100.00
2022-07-29T13:50:38.124Z,100.00
2022-07-29T13:53:29.841Z,100.00
2022-07-29T13:56:07.026Z,100.00
2022-07-29T13:58:37.395Z,100.00
2022-07-29T14:01:26.734Z,100.00
2022-07-29T14:03:54.361Z,100.00
2022-07-29T14:06:23.622Z,100.00
2022-07-29T14:08:56.237Z,100.00
2022-07-29T14:11:26.197Z,100.00
2022-07-29T14:14:33.899Z,100.00
2022-07-29T14:17:03.550Z,100.00
2022-07-29T14:19:40.635Z,100.00
2022-07-29T14:22:13.810Z,100.00
2022-07-29T14:24:41.128Z,100.00
2022-07-29T14:27:13.883Z,100.00
2022-07-29T14:30:08.248Z,100.00
2022-07-29T14:32:45.847Z,100.00
2022-07-29T14:35:24.690Z,100.00
2022-07-29T14:37:54.702Z,100.00
2022-07-29T14:40:46.340Z,100.00
2022-07-29T14:43:30.421Z,100.00
2022-07-29T14:46:20.918Z,100.00
2022-07-29T14:48:53.953Z,100.00
2022-07-29T14:51:24.786Z,100.00
2022-07-29T14:54:02.525Z,100.00
2022-07-29T14:56:37.849Z,100.00
2022-07-29T14:59:14.603Z,100.00
2022-07-29T15:01:53.599Z,100.00
2022-07-29T15:04:20.992Z,100.00
2022-07-29T15:06:58.435Z,100.00
2022-07-29T15:09:49.873Z,100.00
2022-07-29T15:12:20.249Z,100.00
2022-07-29T15:15:11.018Z,100.00
2022-07-29T15:18:03.589Z,100.00
2022-07-29T15:20:46.394Z,100.00
2022-07-29T15:23:36.901Z,100.00
2022-07-29T15:26:24.892Z,100.00
2022-07-29T15:28:56.734Z,100.00
2022-07-29T15:31:54.286Z,100.00
2022-07-29T15:34:30.461Z,100.00
2022-07-29T15:37:48.515Z,100.00
2022-07-29T15:40:48.338Z,100.00
2022-07-29T15:43:26.458Z,100.00
2022-07-29T15:46:24.763Z,100.00
2022-07-29T15:48:52.547Z,100.00
2022-07-29T15:51:33.541Z,100.00
2022-07-29T15:54:26.538Z,100.00
2022-07-29T15:57:01.662Z,100.00
2022-07-29T15:59:52.077Z,100.00
2022-07-29T16:02:25.099Z,100.00
2022-07-29T16:05:04.975Z,100.00
2022-07-29T16:07:50.152Z,100.00
2022-07-29T16:10:38.486Z,100.00
2022-07-29T16:13:21.543Z,100.00
2022-07-29T16:16:15.107Z,100.00
2022-07-29T16:19:11.262Z,98.41
2022-07-29T16:21:43.764Z,99.56
2022-07-29T16:24:24.748Z,96.97
2022-07-29T16:26:57.856Z,98.56
2022-07-29T16:30:09.098Z,97.88
2022-07-29T16:33:08.392Z,97.21
2022-07-29T16:36:06.511Z,94.16
2022-07-29T16:38:47.156Z,91.12
2022-07-29T16:41:29.125Z,85.05
2022-07-29T16:44:19.685Z,79.98
2022-07-29T16:46:50.207Z,79.10
2022-07-29T16:49:23.210Z,75.80
2022-07-29T16:51:53.287Z,77.09
2022-07-29T16:54:20.685Z,77.30
2022-07-29T16:56:48.342Z,76.55
2022-07-29T16:59:17.989Z,78.56
2022-07-29T17:01:55.436Z,79.20
2022-07-29T17:04:23.292Z,78.03
2022-07-29T17:06:54.402Z,80.03
2022-07-29T17:09:56.395Z,82.71
2022-07-29T17:12:37.892Z,84.32
2022-07-29T17:15:07.546Z,86.35
2022-07-29T17:17:56.563Z,88.92
2022-07-29T17:20:26.213Z,89.35
2022-07-29T17:23:10.527Z,94.08
2022-07-29T17:25:44.307Z,93.02
2022-07-29T17:28:24.454Z,93.77
2022-07-29T17:31:03.264Z,93.08
2022-07-29T17:33:34.842Z,95.89
2022-07-29T17:36:42.345Z,95.97
2022-07-29T17:39:49.680Z,96.46
2022-07-29T17:42:22.552Z,96.18
2022-07-29T17:44:52.657Z,95.52
2022-07-29T17:47:31.277Z,95.06
2022-07-29T17:50:12.454Z,97.36
2022-07-29T17:53:02.671Z,99.01
2022-07-29T17:55:38.948Z,98.68
2022-07-29T17:58:08.608Z,99.28
2022-07-29T18:00:45.452Z,99.74
2022-07-29T18:03:55.220Z,100.00
2022-07-29T18:06:25.364Z,100.00
2022-07-29T18:08:52.453Z,100.00
2022-07-29T18:11:25.503Z,100.00
2022-07-29T18:13:53.108Z,100.00
2022-07-29T18:16:22.729Z,100.00
2022-07-29T18:19:18.131Z,100.00
2022-07-29T18:21:53.960Z,100.00
2022-07-29T18:24:24.859Z,100.00
2022-07-29T18:26:55.992Z,100.00
2022-07-29T18:29:35.926Z,100.00
2022-07-29T18:32:15.671Z,100.00
2022-07-29T18:35:02.155Z,100.00
2022-07-29T18:38:01.867Z,100.00
2022-07-29T18:40:46.220Z,100.00
2022-07-29T18:43:45.364Z,100.00
2022-07-29T18:46:58.239Z,100.00
2022-07-29T18:49:40.808Z,100.00
2022-07-29T18:52:18.133Z,100.00
2022-07-29T18:55:18.026Z,100.00
2022-07-29T18:58:25.663Z,100.00
2022-07-29T19:01:16.399Z,100.00
2022-07-29T19:03:53.155Z,100.00
2022-07-29T19:06:41.109Z,100.00
2022-07-29T19:09:19.282Z,100.00
2022-07-29T19:12:09.916Z,100.00
2022-07-29T19:14:39.605Z,100.00
2022-07-29T19:17:36.180Z,100.00
2022-07-29T19:20:17.035Z,100.00
2022-07-29T19:23:09.927Z,100.00
2022-07-29T19:26:07.772Z,100.00
2022-07-29T19:28:55.842Z,100.00
2022-07-29T19:31:23.367Z,100.00
2022-07-29T19:34:16.558Z,100.00
2022-07-29T19:36:55.150Z,100.00
2022-07-29T19:39:46.118Z,100.00
2022-07-29T19:42:23.625Z,100.00
2022-07-29T19:45:22.391Z,100.00
2022-07-29T19:48:40.786Z,100.00
2022-07-29T19:51:13.171Z,100.00
2022-07-29T19:53:45.871Z,100.00
2022-07-29T19:56:52.113Z,100.00
2022-07-29T19:59:40.434Z,100.00
2022-07-29T20:02:48.480Z,100.00
2022-07-29T20:05:33.868Z,100.00
2022-07-29T20:09:01.902Z,100.00
2022-07-29T20:11:41.865Z,100.00
2022-07-29T20:15:19.003Z,100.00
2022-07-29T20:18:29.698Z,100.00
2022-07-29T20:22:21.063Z,100.00
2022-07-29T20:25:32.377Z,100.00
2022-07-29T20:28:39.853Z,100.00
2022-07-29T20:31:33.595Z,100.00
2022-07-29T20:34:23.992Z,100.00
2022-07-29T20:37:25.736Z,100.00
2022-07-29T20:39:58.016Z,100.00
2022-07-29T20:42:29.252Z,100.00
2022-07-29T20:45:40.961Z,100.00
2022-07-29T20:48:17.803Z,100.00
2022-07-29T20:50:54.305Z,100.00
2022-07-29T20:56:19.253Z,100.00
2022-07-29T20:59:04.136Z,100.00
2022-07-29T21:02:10.753Z,100.00
2022-07-29T21:04:57.074Z,100.00
2022-07-29T21:07:44.784Z,100.00
2022-07-29T21:10:34.703Z,100.00
2022-07-29T21:13:37.359Z,100.00
2022-07-29T21:16:19.780Z,100.00
2022-07-29T21:19:05.060Z,100.00
2022-07-29T21:22:02.729Z,100.00
2022-07-29T21:25:13.181Z,100.00
2022-07-29T21:27:59.786Z,100.00
2022-07-29T21:30:52.800Z,100.00
2022-07-29T21:33:44.940Z,100.00
2022-07-29T21:36:49.620Z,100.00
2022-07-29T21:39:22.694Z,100.00
2022-07-29T21:42:08.558Z,100.00
2022-07-29T21:45:30.370Z,100.00
2022-07-29T21:48:13.109Z,100.00
2022-07-29T21:51:04.650Z,100.00
2022-07-29T21:53:53.070Z,100.00
2022-07-29T21:56:27.482Z,100.00
2022-07-29T21:58:58.749Z,100.00
2022-07-29T22:01:29.122Z,100.00
2022-07-29T22:04:36.038Z,100.00
2022-07-29T22:07:16.616Z,100.00
2022-07-29T22:10:26.748Z,100.00
2022-07-29T22:13:37.214Z,100.00
2022-07-29T22:16:25.398Z,100.00
2022-07-29T22:19:33.145Z,100.00
2022-07-29T22:22:52.862Z,100.00
2022-07-29T22:25:44.261Z,100.00
2022-07-29T22:28:40.607Z,100.00
2022-07-29T22:31:17.687Z,100.00
2022-07-29T22:34:11.132Z,100.00
2022-07-29T22:37:13.791Z,100.00
2022-07-29T22:40:01.355Z,100.00
2022-07-29T22:42:51.681Z,100.00
2022-07-29T22:45:56.378Z,100.00
2022-07-29T22:48:54.042Z,100.00
2022-07-29T22:52:10.840Z,100.00
2022-07-29T22:55:18.378Z,100.00
2022-07-29T22:57:54.474Z,100.00
2022-07-29T23:00:30.470Z,100.00
2022-07-29T23:03:51.101Z,100.00
2022-07-29T23:06:24.266Z,100.00
2022-07-29T23:09:34.352Z,100.00
2022-07-29T23:12:35.795Z,100.00
2022-07-29T23:15:52.385Z,100.00
2022-07-29T23:19:03.603Z,100.00
2022-07-29T23:22:20.311Z,100.00
2022-07-29T23:25:14.863Z,100.00
2022-07-29T23:28:22.648Z,100.00
2022-07-29T23:31:34.313Z,100.00
2022-07-29T23:34:53.335Z,100.00
2022-07-29T23:38:01.038Z,100.00
2022-07-29T23:41:03.138Z,100.00
2022-07-29T23:44:41.136Z,100.00
2022-07-29T23:47:26.434Z,100.00
2022-07-29T23:50:20.105Z,100.00
2022-07-29T23:53:54.008Z,100.00
2022-07-29T23:57:02.481Z,100.00
